sensor_id;sensor_type;location;lat;lon;timestamp;P1;durP1;ratioP1;P2;durP2;ratioP2
2021;SDS011;1015;49.756;6.994;2022-08-11T00:00:21;4.40;;;4.10;;
2021;SDS011;1015;49.756;6.994;2022-08-11T00:03:02;4.97;;;4.57;;
2021;SDS011;1015;49.756;6.994;2022-08-11T00:05:32;4.70;;;4.30;;
2021;SDS011;1015;49.756;6.994;2022-08-11T00:08:09;4.97;;;4.53;;
2021;SDS011;1015;49.756;6.994;2022-08-11T00:10:37;6.77;;;4.47;;
2021;SDS011;1015;49.756;6.994;2022-08-11T00:13:04;5.23;;;4.73;;
2021;SDS011;1015;49.756;6.994;2022-08-11T00:15:37;5.07;;;4.60;;
2021;SDS011;1015;49.756;6.994;2022-08-11T00:18:07;5.53;;;4.60;;
2021;SDS011;1015;49.756;6.994;2022-08-11T00:20:37;4.60;;;4.20;;
2021;SDS011;1015;49.756;6.994;2022-08-11T00:23:07;4.93;;;4.33;;
2021;SDS011;1015;49.756;6.994;2022-08-11T00:25:36;5.77;;;5.27;;
2021;SDS011;1015;49.756;6.994;2022-08-11T00:28:20;4.90;;;4.37;;
2021;SDS011;1015;49.756;6.994;2022-08-11T00:30:51;7.03;;;4.17;;
2021;SDS011;1015;49.756;6.994;2022-08-11T00:33:19;4.77;;;4.37;;
2021;SDS011;1015;49.756;6.994;2022-08-11T00:35:48;5.33;;;4.93;;
2021;SDS011;1015;49.756;6.994;2022-08-11T00:38:16;6.20;;;4.40;;
2021;SDS011;1015;49.756;6.994;2022-08-11T00:40:50;5.00;;;4.60;;
2021;SDS011;1015;49.756;6.994;2022-08-11T00:43:23;4.60;;;4.30;;
2021;SDS011;1015;49.756;6.994;2022-08-11T00:46:09;5.60;;;4.60;;
2021;SDS011;1015;49.756;6.994;2022-08-11T00:48:44;4.50;;;4.20;;
2021;SDS011;1015;49.756;6.994;2022-08-11T00:51:23;4.90;;;4.50;;
2021;SDS011;1015;49.756;6.994;2022-08-11T00:54:04;7.93;;;5.00;;
2021;SDS011;1015;49.756;6.994;2022-08-11T00:59:47;5.53;;;5.03;;
2021;SDS011;1015;49.756;6.994;2022-08-11T01:02:40;4.57;;;4.27;;
2021;SDS011;1015;49.756;6.994;2022-08-11T01:05:27;5.27;;;4.87;;
2021;SDS011;1015;49.756;6.994;2022-08-11T01:08:22;5.10;;;4.70;;
2021;SDS011;1015;49.756;6.994;2022-08-11T01:11:15;7.13;;;4.70;;
2021;SDS011;1015;49.756;6.994;2022-08-11T01:20:22;5.23;;;4.73;;
2021;SDS011;1015;49.756;6.994;2022-08-11T01:23:26;4.73;;;4.33;;
2021;SDS011;1015;49.756;6.994;2022-08-11T01:26:38;5.20;;;4.70;;
2021;SDS011;1015;49.756;6.994;2022-08-11T01:32:36;5.33;;;4.83;;
2021;SDS011;1015;49.756;6.994;2022-08-11T01:35:34;5.50;;;5.10;;
2021;SDS011;1015;49.756;6.994;2022-08-11T01:38:24;5.23;;;4.73;;
2021;SDS011;1015;49.756;6.994;2022-08-11T01:41:19;5.23;;;4.73;;
2021;SDS011;1015;49.756;6.994;2022-08-11T01:44:32;5.77;;;4.50;;
2021;SDS011;1015;49.756;6.994;2022-08-11T01:47:20;5.03;;;4.40;;
2021;SDS011;1015;49.756;6.994;2022-08-11T01:50:14;4.50;;;4.10;;
2021;SDS011;1015;49.756;6.994;2022-08-11T01:52:51;4.90;;;4.43;;
2021;SDS011;1015;49.756;6.994;2022-08-11T01:55:36;4.80;;;4.50;;
2021;SDS011;1015;49.756;6.994;2022-08-11T01:58:11;4.40;;;4.00;;
2021;SDS011;1015;49.756;6.994;2022-08-11T02:00:47;4.47;;;4.07;;
2021;SDS011;1015;49.756;6.994;2022-08-11T02:03:23;4.97;;;4.53;;
2021;SDS011;1015;49.756;6.994;2022-08-11T02:05:59;4.83;;;4.50;;
2021;SDS011;1015;49.756;6.994;2022-08-11T02:08:54;5.33;;;4.93;;
2021;SDS011;1015;49.756;6.994;2022-08-11T02:11:29;5.60;;;4.80;;
2021;SDS011;1015;49.756;6.994;2022-08-11T02:13:59;5.53;;;4.77;;
2021;SDS011;1015;49.756;6.994;2022-08-11T02:16:48;4.90;;;4.40;;
2021;SDS011;1015;49.756;6.994;2022-08-11T02:19:35;5.00;;;4.60;;
2021;SDS011;1015;49.756;6.994;2022-08-11T02:22:29;5.10;;;4.70;;
2021;SDS011;1015;49.756;6.994;2022-08-11T02:25:21;4.93;;;4.53;;
2021;SDS011;1015;49.756;6.994;2022-08-11T02:28:00;4.93;;;4.50;;
2021;SDS011;1015;49.756;6.994;2022-08-11T02:30:34;4.90;;;4.53;;
2021;SDS011;1015;49.756;6.994;2022-08-11T02:33:08;5.43;;;4.63;;
2021;SDS011;1015;49.756;6.994;2022-08-11T02:35:54;5.07;;;4.60;;
2021;SDS011;1015;49.756;6.994;2022-08-11T02:38:48;5.67;;;5.17;;
2021;SDS011;1015;49.756;6.994;2022-08-11T02:41:27;5.70;;;4.90;;
2021;SDS011;1015;49.756;6.994;2022-08-11T02:44:24;5.00;;;4.50;;
2021;SDS011;1015;49.756;6.994;2022-08-11T02:47:00;5.20;;;4.60;;
2021;SDS011;1015;49.756;6.994;2022-08-11T02:49:35;5.07;;;4.40;;
2021;SDS011;1015;49.756;6.994;2022-08-11T02:52:25;4.77;;;4.37;;
2021;SDS011;1015;49.756;6.994;2022-08-11T02:55:11;4.37;;;4.07;;
2021;SDS011;1015;49.756;6.994;2022-08-11T02:57:46;5.13;;;4.73;;
2021;SDS011;1015;49.756;6.994;2022-08-11T03:00:17;4.57;;;4.27;;
2021;SDS011;1015;49.756;6.994;2022-08-11T03:02:48;5.87;;;4.93;;
2021;SDS011;1015;49.756;6.994;2022-08-11T03:05:36;5.00;;;4.47;;
2021;SDS011;1015;49.756;6.994;2022-08-11T03:08:16;5.23;;;4.73;;
2021;SDS011;1015;49.756;6.994;2022-08-11T03:10:53;4.60;;;4.20;;
2021;SDS011;1015;49.756;6.994;2022-08-11T03:13:52;4.77;;;4.27;;
2021;SDS011;1015;49.756;6.994;2022-08-11T03:16:50;4.17;;;3.87;;
2021;SDS011;1015;49.756;6.994;2022-08-11T03:19:25;4.97;;;4.00;;
2021;SDS011;1015;49.756;6.994;2022-08-11T03:22:02;5.80;;;4.80;;
2021;SDS011;1015;49.756;6.994;2022-08-11T03:24:38;5.33;;;4.83;;
2021;SDS011;1015;49.756;6.994;2022-08-11T03:27:19;5.23;;;4.33;;
2021;SDS011;1015;49.756;6.994;2022-08-11T03:30:04;4.80;;;4.40;;
2021;SDS011;1015;49.756;6.994;2022-08-11T03:32:36;4.33;;;3.93;;
2021;SDS011;1015;49.756;6.994;2022-08-11T03:35:36;5.07;;;4.57;;
2021;SDS011;1015;49.756;6.994;2022-08-11T03:38:07;5.47;;;4.97;;
2021;SDS011;1015;49.756;6.994;2022-08-11T03:40:42;5.30;;;4.80;;
2021;SDS011;1015;49.756;6.994;2022-08-11T03:43:46;5.70;;;5.07;;
2021;SDS011;1015;49.756;6.994;2022-08-11T03:46:23;4.50;;;4.20;;
2021;SDS011;1015;49.756;6.994;2022-08-11T03:49:03;5.50;;;4.40;;
2021;SDS011;1015;49.756;6.994;2022-08-11T03:51:38;4.83;;;4.47;;
2021;SDS011;1015;49.756;6.994;2022-08-11T03:54:20;4.93;;;4.53;;
2021;SDS011;1015;49.756;6.994;2022-08-11T03:57:18;5.20;;;4.77;;
2021;SDS011;1015;49.756;6.994;2022-08-11T04:00:16;4.83;;;4.40;;
2021;SDS011;1015;49.756;6.994;2022-08-11T04:15:13;4.70;;;4.30;;
2021;SDS011;1015;49.756;6.994;2022-08-11T04:24:21;5.80;;;4.13;;
2021;SDS011;1015;49.756;6.994;2022-08-11T04:27:06;4.93;;;4.53;;
2021;SDS011;1015;49.756;6.994;2022-08-11T04:29:56;4.97;;;4.47;;
2021;SDS011;1015;49.756;6.994;2022-08-11T04:32:40;5.10;;;4.70;;
2021;SDS011;1015;49.756;6.994;2022-08-11T04:35:31;4.57;;;4.17;;
2021;SDS011;1015;49.756;6.994;2022-08-11T04:41:53;5.13;;;4.70;;
2021;SDS011;1015;49.756;6.994;2022-08-11T04:48:18;6.33;;;4.37;;
2021;SDS011;1015;49.756;6.994;2022-08-11T04:51:20;4.63;;;4.23;;
2021;SDS011;1015;49.756;6.994;2022-08-11T04:54:22;4.63;;;4.23;;
2021;SDS011;1015;49.756;6.994;2022-08-11T04:57:16;4.87;;;4.47;;
2021;SDS011;1015;49.756;6.994;2022-08-11T05:00:05;4.73;;;4.37;;
2021;SDS011;1015;49.756;6.994;2022-08-11T05:09:21;4.60;;;4.20;;
2021;SDS011;1015;49.756;6.994;2022-08-11T05:15:01;4.23;;;3.93;;
2021;SDS011;1015;49.756;6.994;2022-08-11T05:17:51;4.70;;;4.40;;
2021;SDS011;1015;49.756;6.994;2022-08-11T05:20:40;4.60;;;4.20;;
2021;SDS011;1015;49.756;6.994;2022-08-11T05:23:45;4.30;;;4.00;;
2021;SDS011;1015;49.756;6.994;2022-08-11T05:26:36;4.33;;;3.90;;
2021;SDS011;1015;49.756;6.994;2022-08-11T05:29:34;4.77;;;4.37;;
2021;SDS011;1015;49.756;6.994;2022-08-11T05:32:22;4.53;;;4.23;;
2021;SDS011;1015;49.756;6.994;2022-08-11T05:35:08;4.60;;;4.20;;
2021;SDS011;1015;49.756;6.994;2022-08-11T05:37:38;4.93;;;4.57;;
2021;SDS011;1015;49.756;6.994;2022-08-11T05:40:21;4.40;;;4.10;;
2021;SDS011;1015;49.756;6.994;2022-08-11T05:43:11;5.40;;;4.03;;
2021;SDS011;1015;49.756;6.994;2022-08-11T05:45:56;3.83;;;3.63;;
2021;SDS011;1015;49.756;6.994;2022-08-11T05:48:43;4.60;;;4.30;;
2021;SDS011;1015;49.756;6.994;2022-08-11T05:51:32;4.27;;;3.77;;
2021;SDS011;1015;49.756;6.994;2022-08-11T05:54:17;4.50;;;4.10;;
2021;SDS011;1015;49.756;6.994;2022-08-11T05:57:03;4.23;;;3.70;;
2021;SDS011;1015;49.756;6.994;2022-08-11T05:59:32;4.20;;;3.80;;
2021;SDS011;1015;49.756;6.994;2022-08-11T06:01:59;4.57;;;4.17;;
2021;SDS011;1015;49.756;6.994;2022-08-11T06:04:27;4.37;;;4.07;;
2021;SDS011;1015;49.756;6.994;2022-08-11T06:06:56;4.13;;;3.83;;
2021;SDS011;1015;49.756;6.994;2022-08-11T06:09:27;3.97;;;3.67;;
2021;SDS011;1015;49.756;6.994;2022-08-11T06:11:58;4.33;;;3.93;;
2021;SDS011;1015;49.756;6.994;2022-08-11T06:14:27;5.30;;;4.00;;
2021;SDS011;1015;49.756;6.994;2022-08-11T06:16:57;5.10;;;4.30;;
2021;SDS011;1015;49.756;6.994;2022-08-11T06:19:34;5.17;;;3.77;;
2021;SDS011;1015;49.756;6.994;2022-08-11T06:22:04;4.23;;;3.83;;
2021;SDS011;1015;49.756;6.994;2022-08-11T06:24:34;3.97;;;3.60;;
2021;SDS011;1015;49.756;6.994;2022-08-11T06:27:03;3.90;;;3.60;;
2021;SDS011;1015;49.756;6.994;2022-08-11T06:29:32;7.30;;;4.47;;
2021;SDS011;1015;49.756;6.994;2022-08-11T06:32:07;4.20;;;3.80;;
2021;SDS011;1015;49.756;6.994;2022-08-11T06:34:45;4.17;;;3.87;;
2021;SDS011;1015;49.756;6.994;2022-08-11T06:37:38;4.10;;;3.80;;
2021;SDS011;1015;49.756;6.994;2022-08-11T06:40:12;3.97;;;3.67;;
2021;SDS011;1015;49.756;6.994;2022-08-11T06:42:52;4.37;;;4.07;;
2021;SDS011;1015;49.756;6.994;2022-08-11T06:45:26;4.30;;;3.90;;
2021;SDS011;1015;49.756;6.994;2022-08-11T06:48:00;4.03;;;3.67;;
2021;SDS011;1015;49.756;6.994;2022-08-11T06:50:30;4.37;;;3.97;;
2021;SDS011;1015;49.756;6.994;2022-08-11T06:53:16;4.23;;;3.77;;
2021;SDS011;1015;49.756;6.994;2022-08-11T06:55:45;4.83;;;4.40;;
2021;SDS011;1015;49.756;6.994;2022-08-11T06:58:32;4.97;;;4.47;;
2021;SDS011;1015;49.756;6.994;2022-08-11T07:01:22;4.80;;;3.90;;
2021;SDS011;1015;49.756;6.994;2022-08-11T07:04:03;4.20;;;3.90;;
2021;SDS011;1015;49.756;6.994;2022-08-11T07:06:34;4.63;;;4.10;;
2021;SDS011;1015;49.756;6.994;2022-08-11T07:09:08;4.47;;;4.17;;
2021;SDS011;1015;49.756;6.994;2022-08-11T07:12:17;6.27;;;4.50;;
2021;SDS011;1015;49.756;6.994;2022-08-11T07:15:17;4.37;;;4.07;;
2021;SDS011;1015;49.756;6.994;2022-08-11T07:18:03;4.27;;;3.97;;
2021;SDS011;1015;49.756;6.994;2022-08-11T07:20:51;4.30;;;3.90;;
2021;SDS011;1015;49.756;6.994;2022-08-11T07:23:48;5.33;;;4.23;;
2021;SDS011;1015;49.756;6.994;2022-08-11T07:26:36;4.33;;;3.93;;
2021;SDS011;1015;49.756;6.994;2022-08-11T07:29:23;3.67;;;3.47;;
2021;SDS011;1015;49.756;6.994;2022-08-11T07:31:52;4.90;;;3.80;;
2021;SDS011;1015;49.756;6.994;2022-08-11T07:34:20;5.10;;;4.53;;
2021;SDS011;1015;49.756;6.994;2022-08-11T07:36:54;5.50;;;4.00;;
2021;SDS011;1015;49.756;6.994;2022-08-11T07:39:23;4.43;;;4.00;;
2021;SDS011;1015;49.756;6.994;2022-08-11T07:41:52;4.17;;;3.83;;
2021;SDS011;1015;49.756;6.994;2022-08-11T07:44:22;3.97;;;3.67;;
2021;SDS011;1015;49.756;6.994;2022-08-11T07:46:53;3.70;;;3.40;;
2021;SDS011;1015;49.756;6.994;2022-08-11T07:49:38;4.40;;;4.10;;
2021;SDS011;1015;49.756;6.994;2022-08-11T07:52:29;4.50;;;4.10;;
2021;SDS011;1015;49.756;6.994;2022-08-11T07:55:02;6.27;;;4.30;;
2021;SDS011;1015;49.756;6.994;2022-08-11T07:57:30;3.97;;;3.67;;
2021;SDS011;1015;49.756;6.994;2022-08-11T08:00:16;4.73;;;3.37;;
2021;SDS011;1015;49.756;6.994;2022-08-11T08:03:01;3.73;;;3.53;;
2021;SDS011;1015;49.756;6.994;2022-08-11T08:05:48;4.90;;;3.70;;
2021;SDS011;1015;49.756;6.994;2022-08-11T08:08:35;5.40;;;3.87;;
2021;SDS011;1015;49.756;6.994;2022-08-11T08:11:21;4.63;;;3.30;;
2021;SDS011;1015;49.756;6.994;2022-08-11T08:14:07;4.20;;;3.90;;
2021;SDS011;1015;49.756;6.994;2022-08-11T08:16:52;4.30;;;4.00;;
2021;SDS011;1015;49.756;6.994;2022-08-11T08:19:38;4.00;;;3.70;;
2021;SDS011;1015;49.756;6.994;2022-08-11T08:22:07;5.17;;;3.73;;
2021;SDS011;1015;49.756;6.994;2022-08-11T08:24:37;4.03;;;3.73;;
2021;SDS011;1015;49.756;6.994;2022-08-11T08:27:05;4.43;;;4.03;;
2021;SDS011;1015;49.756;6.994;2022-08-11T08:29:33;3.83;;;3.63;;
2021;SDS011;1015;49.756;6.994;2022-08-11T08:32:20;4.87;;;3.90;;
2021;SDS011;1015;49.756;6.994;2022-08-11T08:34:48;4.00;;;3.70;;
2021;SDS011;1015;49.756;6.994;2022-08-11T08:37:17;3.23;;;3.03;;
2021;SDS011;1015;49.756;6.994;2022-08-11T08:39:47;4.03;;;3.50;;
2021;SDS011;1015;49.756;6.994;2022-08-11T08:42:16;5.10;;;3.60;;
2021;SDS011;1015;49.756;6.994;2022-08-11T08:44:49;4.00;;;3.70;;
2021;SDS011;1015;49.756;6.994;2022-08-11T08:47:21;4.37;;;3.30;;
2021;SDS011;1015;49.756;6.994;2022-08-11T08:49:52;3.90;;;3.50;;
2021;SDS011;1015;49.756;6.994;2022-08-11T08:52:26;3.57;;;3.27;;
2021;SDS011;1015;49.756;6.994;2022-08-11T08:55:02;3.17;;;2.93;;
2021;SDS011;1015;49.756;6.994;2022-08-11T08:57:32;5.10;;;4.60;;
2021;SDS011;1015;49.756;6.994;2022-08-11T09:00:00;3.13;;;2.70;;
2021;SDS011;1015;49.756;6.994;2022-08-11T09:02:29;4.33;;;3.43;;
2021;SDS011;1015;49.756;6.994;2022-08-11T09:04:57;3.40;;;3.10;;
2021;SDS011;1015;49.756;6.994;2022-08-11T09:07:25;3.63;;;3.40;;
2021;SDS011;1015;49.756;6.994;2022-08-11T09:09:56;3.63;;;3.33;;
2021;SDS011;1015;49.756;6.994;2022-08-11T09:12:27;4.13;;;3.27;;
2021;SDS011;1015;49.756;6.994;2022-08-11T09:14:56;3.27;;;3.00;;
2021;SDS011;1015;49.756;6.994;2022-08-11T09:17:28;2.90;;;2.63;;
2021;SDS011;1015;49.756;6.994;2022-08-11T09:19:58;3.30;;;3.10;;
2021;SDS011;1015;49.756;6.994;2022-08-11T09:22:26;3.77;;;3.40;;
2021;SDS011;1015;49.756;6.994;2022-08-11T09:25:13;4.00;;;3.70;;
2021;SDS011;1015;49.756;6.994;2022-08-11T09:28:00;4.10;;;3.70;;
2021;SDS011;1015;49.756;6.994;2022-08-11T09:30:29;4.57;;;3.60;;
2021;SDS011;1015;49.756;6.994;2022-08-11T09:32:57;3.83;;;3.30;;
2021;SDS011;1015;49.756;6.994;2022-08-11T09:35:27;4.60;;;3.50;;
2021;SDS011;1015;49.756;6.994;2022-08-11T09:37:55;3.90;;;3.07;;
2021;SDS011;1015;49.756;6.994;2022-08-11T09:40:42;3.80;;;3.40;;
2021;SDS011;1015;49.756;6.994;2022-08-11T09:43:12;3.73;;;3.43;;
2021;SDS011;1015;49.756;6.994;2022-08-11T09:45:59;3.60;;;3.30;;
2021;SDS011;1015;49.756;6.994;2022-08-11T09:48:28;4.20;;;3.80;;
2021;SDS011;1015;49.756;6.994;2022-08-11T09:50:58;4.30;;;3.60;;
2021;SDS011;1015;49.756;6.994;2022-08-11T09:53:30;3.37;;;3.10;;
2021;SDS011;1015;49.756;6.994;2022-08-11T09:56:02;3.50;;;3.20;;
2021;SDS011;1015;49.756;6.994;2022-08-11T09:58:51;4.70;;;3.67;;
2021;SDS011;1015;49.756;6.994;2022-08-11T10:01:19;6.50;;;3.67;;
2021;SDS011;1015;49.756;6.994;2022-08-11T10:03:57;4.37;;;4.07;;
2021;SDS011;1015;49.756;6.994;2022-08-11T10:06:27;3.70;;;3.50;;
2021;SDS011;1015;49.756;6.994;2022-08-11T10:09:14;5.27;;;4.17;;
2021;SDS011;1015;49.756;6.994;2022-08-11T10:11:45;5.20;;;3.87;;
2021;SDS011;1015;49.756;6.994;2022-08-11T10:14:15;3.80;;;3.50;;
2021;SDS011;1015;49.756;6.994;2022-08-11T10:17:02;4.03;;;3.63;;
2021;SDS011;1015;49.756;6.994;2022-08-11T10:19:32;4.10;;;3.80;;
2021;SDS011;1015;49.756;6.994;2022-08-11T10:22:00;4.10;;;3.80;;
2021;SDS011;1015;49.756;6.994;2022-08-11T10:24:47;4.17;;;3.77;;
2021;SDS011;1015;49.756;6.994;2022-08-11T10:27:32;3.43;;;3.23;;
2021;SDS011;1015;49.756;6.994;2022-08-11T10:30:01;3.87;;;3.57;;
2021;SDS011;1015;49.756;6.994;2022-08-11T10:32:46;3.43;;;3.13;;
2021;SDS011;1015;49.756;6.994;2022-08-11T10:35:33;4.60;;;3.33;;
2021;SDS011;1015;49.756;6.994;2022-08-11T10:38:01;3.33;;;3.10;;
2021;SDS011;1015;49.756;6.994;2022-08-11T10:40:29;3.23;;;2.93;;
2021;SDS011;1015;49.756;6.994;2022-08-11T10:42:59;3.00;;;2.77;;
2021;SDS011;1015;49.756;6.994;2022-08-11T10:45:31;3.00;;;2.80;;
2021;SDS011;1015;49.756;6.994;2022-08-11T10:48:18;2.83;;;2.63;;
2021;SDS011;1015;49.756;6.994;2022-08-11T10:50:47;4.27;;;2.50;;
2021;SDS011;1015;49.756;6.994;2022-08-11T10:53:32;3.20;;;3.00;;
2021;SDS011;1015;49.756;6.994;2022-08-11T10:56:17;2.60;;;2.40;;
2021;SDS011;1015;49.756;6.994;2022-08-11T10:59:02;3.17;;;2.83;;
2021;SDS011;1015;49.756;6.994;2022-08-11T11:01:35;3.30;;;3.00;;
2021;SDS011;1015;49.756;6.994;2022-08-11T11:04:06;4.33;;;2.93;;
2021;SDS011;1015;49.756;6.994;2022-08-11T11:06:39;3.77;;;3.13;;
2021;SDS011;1015;49.756;6.994;2022-08-11T11:09:16;4.30;;;3.50;;
2021;SDS011;1015;49.756;6.994;2022-08-11T11:11:47;4.30;;;3.00;;
2021;SDS011;1015;49.756;6.994;2022-08-11T11:14:33;3.83;;;3.53;;
2021;SDS011;1015;49.756;6.994;2022-08-11T11:17:24;3.40;;;3.20;;
2021;SDS011;1015;49.756;6.994;2022-08-11T11:20:15;3.40;;;3.03;;
2021;SDS011;1015;49.756;6.994;2022-08-11T11:22:44;3.13;;;2.87;;
2021;SDS011;1015;49.756;6.994;2022-08-11T11:25:27;3.87;;;2.83;;
2021;SDS011;1015;49.756;6.994;2022-08-11T11:28:16;3.10;;;2.90;;
2021;SDS011;1015;49.756;6.994;2022-08-11T11:30:55;3.60;;;3.03;;
2021;SDS011;1015;49.756;6.994;2022-08-11T11:33:37;3.73;;;3.30;;
2021;SDS011;1015;49.756;6.994;2022-08-11T11:36:22;3.53;;;3.23;;
2021;SDS011;1015;49.756;6.994;2022-08-11T11:38:57;3.47;;;2.93;;
2021;SDS011;1015;49.756;6.994;2022-08-11T11:41:25;3.13;;;2.93;;
2021;SDS011;1015;49.756;6.994;2022-08-11T11:43:53;3.50;;;2.97;;
2021;SDS011;1015;49.756;6.994;2022-08-11T11:46:22;3.13;;;2.93;;
2021;SDS011;1015;49.756;6.994;2022-08-11T11:48:54;4.13;;;2.90;;
2021;SDS011;1015;49.756;6.994;2022-08-11T11:51:21;3.10;;;2.80;;
2021;SDS011;1015;49.756;6.994;2022-08-11T11:53:49;3.33;;;2.70;;
2021;SDS011;1015;49.756;6.994;2022-08-11T11:56:17;4.10;;;3.40;;
2021;SDS011;1015;49.756;6.994;2022-08-11T11:58:47;3.23;;;2.87;;
2021;SDS011;1015;49.756;6.994;2022-08-11T12:01:40;2.83;;;2.60;;
2021;SDS011;1015;49.756;6.994;2022-08-11T12:04:10;5.13;;;2.90;;
2021;SDS011;1015;49.756;6.994;2022-08-11T12:06:39;3.23;;;3.00;;
2021;SDS011;1015;49.756;6.994;2022-08-11T12:09:06;3.30;;;3.00;;
2021;SDS011;1015;49.756;6.994;2022-08-11T12:11:39;3.30;;;3.10;;
2021;SDS011;1015;49.756;6.994;2022-08-11T12:14:24;4.87;;;3.13;;
2021;SDS011;1015;49.756;6.994;2022-08-11T12:16:52;3.50;;;3.30;;
2021;SDS011;1015;49.756;6.994;2022-08-11T12:19:23;3.30;;;3.00;;
2021;SDS011;1015;49.756;6.994;2022-08-11T12:21:53;3.23;;;3.03;;
2021;SDS011;1015;49.756;6.994;2022-08-11T12:24:39;10.57;;;3.47;;
2021;SDS011;1015;49.756;6.994;2022-08-11T12:27:30;3.17;;;2.97;;
2021;SDS011;1015;49.756;6.994;2022-08-11T12:29:58;3.20;;;3.00;;
2021;SDS011;1015;49.756;6.994;2022-08-11T12:32:26;3.60;;;3.40;;
2021;SDS011;1015;49.756;6.994;2022-08-11T12:34:56;4.23;;;3.47;;
2021;SDS011;1015;49.756;6.994;2022-08-11T12:37:26;4.20;;;3.20;;
2021;SDS011;1015;49.756;6.994;2022-08-11T12:39:57;3.07;;;2.87;;
2021;SDS011;1015;49.756;6.994;2022-08-11T12:42:47;5.37;;;3.47;;
2021;SDS011;1015;49.756;6.994;2022-08-11T12:45:32;3.50;;;3.20;;
2021;SDS011;1015;49.756;6.994;2022-08-11T12:48:01;3.20;;;3.00;;
2021;SDS011;1015;49.756;6.994;2022-08-11T12:50:53;3.50;;;3.10;;
2021;SDS011;1015;49.756;6.994;2022-08-11T12:53:45;3.77;;;3.47;;
2021;SDS011;1015;49.756;6.994;2022-08-11T12:56:19;3.93;;;3.63;;
2021;SDS011;1015;49.756;6.994;2022-08-11T12:59:04;3.53;;;3.30;;
2021;SDS011;1015;49.756;6.994;2022-08-11T13:01:50;4.43;;;3.27;;
2021;SDS011;1015;49.756;6.994;2022-08-11T13:04:36;3.60;;;3.30;;
2021;SDS011;1015;49.756;6.994;2022-08-11T13:07:21;3.53;;;3.23;;
2021;SDS011;1015;49.756;6.994;2022-08-11T13:09:49;3.30;;;3.00;;
2021;SDS011;1015;49.756;6.994;2022-08-11T13:12:17;4.30;;;3.20;;
2021;SDS011;1015;49.756;6.994;2022-08-11T13:15:02;3.37;;;3.10;;
2021;SDS011;1015;49.756;6.994;2022-08-11T13:17:31;3.63;;;3.33;;
2021;SDS011;1015;49.756;6.994;2022-08-11T13:19:59;3.50;;;3.20;;
2021;SDS011;1015;49.756;6.994;2022-08-11T13:22:30;3.60;;;3.17;;
2021;SDS011;1015;49.756;6.994;2022-08-11T13:24:57;4.20;;;3.13;;
2021;SDS011;1015;49.756;6.994;2022-08-11T13:27:24;3.43;;;3.13;;
2021;SDS011;1015;49.756;6.994;2022-08-11T13:29:52;3.20;;;3.00;;
2021;SDS011;1015;49.756;6.994;2022-08-11T13:32:41;3.60;;;3.40;;
2021;SDS011;1015;49.756;6.994;2022-08-11T13:35:10;3.57;;;3.20;;
2021;SDS011;1015;49.756;6.994;2022-08-11T13:37:41;3.53;;;3.23;;
2021;SDS011;1015;49.756;6.994;2022-08-11T13:40:11;3.70;;;3.40;;
2021;SDS011;1015;49.756;6.994;2022-08-11T13:42:39;3.40;;;3.20;;
2021;SDS011;1015;49.756;6.994;2022-08-11T13:45:06;3.90;;;3.60;;
2021;SDS011;1015;49.756;6.994;2022-08-11T13:47:35;3.77;;;3.47;;
2021;SDS011;1015;49.756;6.994;2022-08-11T13:50:03;3.70;;;3.50;;
2021;SDS011;1015;49.756;6.994;2022-08-11T13:52:31;3.70;;;3.40;;
2021;SDS011;1015;49.756;6.994;2022-08-11T13:55:00;3.40;;;3.20;;
2021;SDS011;1015;49.756;6.994;2022-08-11T13:57:29;3.87;;;3.57;;
2021;SDS011;1015;49.756;6.994;2022-08-11T13:59:58;3.47;;;3.20;;
2021;SDS011;1015;49.756;6.994;2022-08-11T14:02:35;3.60;;;3.40;;
2021;SDS011;1015;49.756;6.994;2022-08-11T14:05:06;3.30;;;3.00;;
2021;SDS011;1015;49.756;6.994;2022-08-11T14:07:37;3.70;;;3.33;;
2021;SDS011;1015;49.756;6.994;2022-08-11T14:10:09;4.43;;;3.67;;
2021;SDS011;1015;49.756;6.994;2022-08-11T14:12:38;3.60;;;3.30;;
2021;SDS011;1015;49.756;6.994;2022-08-11T14:15:32;4.00;;;3.60;;
2021;SDS011;1015;49.756;6.994;2022-08-11T14:18:02;3.43;;;3.23;;
2021;SDS011;1015;49.756;6.994;2022-08-11T14:20:32;4.80;;;3.20;;
2021;SDS011;1015;49.756;6.994;2022-08-11T14:23:15;3.60;;;3.40;;
2021;SDS011;1015;49.756;6.994;2022-08-11T14:25:44;3.50;;;3.30;;
2021;SDS011;1015;49.756;6.994;2022-08-11T14:28:25;3.27;;;3.07;;
2021;SDS011;1015;49.756;6.994;2022-08-11T14:30:52;3.37;;;3.00;;
2021;SDS011;1015;49.756;6.994;2022-08-11T14:33:22;3.90;;;3.27;;
2021;SDS011;1015;49.756;6.994;2022-08-11T14:35:49;4.50;;;4.10;;
2021;SDS011;1015;49.756;6.994;2022-08-11T14:38:16;4.60;;;4.27;;
2021;SDS011;1015;49.756;6.994;2022-08-11T14:40:46;4.50;;;4.20;;
2021;SDS011;1015;49.756;6.994;2022-08-11T14:43:31;4.20;;;3.90;;
2021;SDS011;1015;49.756;6.994;2022-08-11T14:46:16;4.63;;;4.20;;
2021;SDS011;1015;49.756;6.994;2022-08-11T14:49:01;5.23;;;4.77;;
2021;SDS011;1015;49.756;6.994;2022-08-11T14:51:29;4.57;;;4.17;;
2021;SDS011;1015;49.756;6.994;2022-08-11T14:53:57;4.77;;;4.47;;
2021;SDS011;1015;49.756;6.994;2022-08-11T14:56:40;4.67;;;4.20;;
2021;SDS011;1015;49.756;6.994;2022-08-11T14:59:08;3.60;;;3.30;;
2021;SDS011;1015;49.756;6.994;2022-08-11T15:01:36;3.90;;;3.60;;
2021;SDS011;1015;49.756;6.994;2022-08-11T15:04:21;4.37;;;4.07;;
2021;SDS011;1015;49.756;6.994;2022-08-11T15:06:49;4.70;;;4.30;;
2021;SDS011;1015;49.756;6.994;2022-08-11T15:09:17;4.37;;;3.97;;
2021;SDS011;1015;49.756;6.994;2022-08-11T15:11:46;4.40;;;3.87;;
2021;SDS011;1015;49.756;6.994;2022-08-11T15:14:30;4.13;;;3.83;;
2021;SDS011;1015;49.756;6.994;2022-08-11T15:17:15;4.07;;;3.77;;
2021;SDS011;1015;49.756;6.994;2022-08-11T15:19:43;6.07;;;4.23;;
2021;SDS011;1015;49.756;6.994;2022-08-11T15:22:25;3.47;;;3.20;;
2021;SDS011;1015;49.756;6.994;2022-08-11T15:25:09;4.90;;;4.40;;
2021;SDS011;1015;49.756;6.994;2022-08-11T15:27:37;4.80;;;3.97;;
2021;SDS011;1015;49.756;6.994;2022-08-11T15:30:23;4.07;;;3.40;;
2021;SDS011;1015;49.756;6.994;2022-08-11T15:33:10;4.00;;;3.80;;
2021;SDS011;1015;49.756;6.994;2022-08-11T15:35:57;5.13;;;4.00;;
2021;SDS011;1015;49.756;6.994;2022-08-11T15:38:46;4.33;;;3.80;;
2021;SDS011;1015;49.756;6.994;2022-08-11T15:41:17;5.33;;;3.77;;
2021;SDS011;1015;49.756;6.994;2022-08-11T15:44:07;4.27;;;3.83;;
2021;SDS011;1015;49.756;6.994;2022-08-11T15:46:54;4.30;;;3.90;;
2021;SDS011;1015;49.756;6.994;2022-08-11T15:49:28;4.43;;;3.90;;
2021;SDS011;1015;49.756;6.994;2022-08-11T15:51:59;4.20;;;3.90;;
2021;SDS011;1015;49.756;6.994;2022-08-11T15:54:32;5.40;;;3.77;;
2021;SDS011;1015;49.756;6.994;2022-08-11T15:57:00;4.30;;;3.90;;
2021;SDS011;1015;49.756;6.994;2022-08-11T15:59:31;3.60;;;3.30;;
2021;SDS011;1015;49.756;6.994;2022-08-11T16:02:19;4.40;;;4.10;;
2021;SDS011;1015;49.756;6.994;2022-08-11T16:05:05;3.93;;;3.63;;
2021;SDS011;1015;49.756;6.994;2022-08-11T16:07:37;4.67;;;4.33;;
2021;SDS011;1015;49.756;6.994;2022-08-11T16:10:06;4.00;;;3.80;;
2021;SDS011;1015;49.756;6.994;2022-08-11T16:12:37;4.60;;;4.10;;
2021;SDS011;1015;49.756;6.994;2022-08-11T16:15:08;3.80;;;3.60;;
2021;SDS011;1015;49.756;6.994;2022-08-11T16:17:55;4.20;;;3.90;;
2021;SDS011;1015;49.756;6.994;2022-08-11T16:20:26;5.83;;;3.90;;
2021;SDS011;1015;49.756;6.994;2022-08-11T16:22:55;5.80;;;4.00;;
2021;SDS011;1015;49.756;6.994;2022-08-11T16:25:25;4.27;;;3.87;;
2021;SDS011;1015;49.756;6.994;2022-08-11T16:27:54;4.40;;;4.10;;
2021;SDS011;1015;49.756;6.994;2022-08-11T16:30:26;4.20;;;3.90;;
2021;SDS011;1015;49.756;6.994;2022-08-11T16:32:55;3.77;;;3.57;;
2021;SDS011;1015;49.756;6.994;2022-08-11T16:35:25;5.37;;;4.67;;
2021;SDS011;1015;49.756;6.994;2022-08-11T16:38:12;4.80;;;4.40;;
2021;SDS011;1015;49.756;6.994;2022-08-11T16:41:03;6.00;;;4.30;;
2021;SDS011;1015;49.756;6.994;2022-08-11T16:43:33;4.30;;;4.00;;
2021;SDS011;1015;49.756;6.994;2022-08-11T16:46:23;5.20;;;4.70;;
2021;SDS011;1015;49.756;6.994;2022-08-11T16:49:09;4.73;;;4.43;;
2021;SDS011;1015;49.756;6.994;2022-08-11T16:51:40;4.90;;;4.50;;
2021;SDS011;1015;49.756;6.994;2022-08-11T16:54:07;4.57;;;4.27;;
2021;SDS011;1015;49.756;6.994;2022-08-11T16:56:36;4.93;;;4.53;;
2021;SDS011;1015;49.756;6.994;2022-08-11T16:59:08;5.53;;;5.00;;
2021;SDS011;1015;49.756;6.994;2022-08-11T17:01:40;4.87;;;4.50;;
2021;SDS011;1015;49.756;6.994;2022-08-11T17:04:13;4.70;;;4.40;;
2021;SDS011;1015;49.756;6.994;2022-08-11T17:07:02;5.13;;;4.63;;
2021;SDS011;1015;49.756;6.994;2022-08-11T17:09:47;4.80;;;4.30;;